Devils Lake, ND

6:40 AM CDT on September 24, 2017 (GMT -0500)
Devils Lake Municipal

Weather History for KDVL - December, 2011

Change the Weather History Date:

Wednesday, December 14, 2011

  Actual Average Record
Temperature  
Mean Temperature 26 °F -  
Max Temperature 28 °F 17 °F 42 °F (1998)
Min Temperature 23 °F 2 °F -23 °F (1989)
Degree Days  
Heating Degree Days 40    
Moisture  
Dew Point 25 °F    
Average Humidity 94    
Maximum Humidity 100    
Minimum Humidity 86    
Precipitation  
Precipitation 0.00 in - - ()
Sea Level Pressure  
Sea Level Pressure 29.78 in    
Wind  
Wind Speed 9 mph (SW)    
Max Wind Speed 17 mph    
Max Gust Speed 21 mph    
Visibility 6 miles    
Events      
Averages and records for this station are not official NWS values.
T = Trace of Precipitation, MM = Missing Value Source: NWS Daily Summary

Daily Weather History Graph

Daily Weather History Graph

Search for Another Location

Airport or City:

Trip Planner

Search our weather history database for the weather conditions in past years. The results will help you decide how hot, cold, wet, or windy it might be!

Date:

Astronomy

Dec. 14, 2011 Rise Set
Actual Time 8:18 AM CST 4:42 PM CST
Civil Twilight 7:41 AM CST 5:18 PM CST
Nautical Twilight 7:02 AM CST 5:58 PM CST
Astronomical Twilight 6:24 AM CST 6:36 PM CST
Moon 9:19 PM CST (12/14) 10:50 AM CST (12/14)
Length of Visible Light 9h 36m
Length of Day
8h 23m
Waning Gibbous, 83% of the Moon is Illuminated
Dec 14
Waning Gibbous
Dec 17
Last Quarter
Dec 24
New
Jan 1
First Quarter
Jan 9
Full

Hourly Weather History & Observations

Time (CST) Temp. Windchill Dew Point Humidity Pressure Visibility Wind Dir Wind Speed Gust Speed Precip Events Conditions
12:15 AM 26.6 °F 18.2 °F 24.8 °F 93% 29.92 in 2.5 mi South 8.1 mph - N/A   Overcast
12:35 AM 26.6 °F 17.5 °F 26.6 °F 100% 29.91 in 2.0 mi South 9.2 mph - N/A   Overcast
12:55 AM 26.6 °F 18.2 °F 26.6 °F 100% 29.91 in 2.0 mi South 8.1 mph - N/A   Overcast
1:15 AM 26.6 °F 18.2 °F 24.8 °F 93% 29.89 in 2.5 mi South 8.1 mph - N/A   Overcast
1:35 AM 26.6 °F 19.1 °F 26.6 °F 100% 29.89 in 2.5 mi South 6.9 mph - N/A   Overcast
1:55 AM 26.6 °F 19.1 °F 26.6 °F 100% 29.88 in 3.0 mi South 6.9 mph - N/A   Overcast
2:15 AM 26.6 °F 19.1 °F 26.6 °F 100% 29.88 in 5.0 mi South 6.9 mph - N/A   Overcast
2:35 AM 26.6 °F 17.5 °F 26.6 °F 100% 29.87 in 5.0 mi South 9.2 mph - N/A   Overcast
2:55 AM 26.6 °F 18.2 °F 24.8 °F 93% 29.87 in 5.0 mi South 8.1 mph - N/A   Overcast
3:15 AM 26.6 °F 19.1 °F 24.8 °F 93% 29.87 in 5.0 mi South 6.9 mph - N/A   Overcast
3:35 AM 26.6 °F 17.5 °F 26.6 °F 100% 29.85 in 5.0 mi South 9.2 mph - N/A   Overcast
3:55 AM 26.6 °F 19.1 °F 26.6 °F 100% 29.84 in 5.0 mi South 6.9 mph - N/A   Overcast
4:15 AM 26.6 °F 19.1 °F 26.6 °F 100% 29.83 in 5.0 mi South 6.9 mph - N/A   Overcast
4:35 AM 26.6 °F 21.2 °F 26.6 °F 100% 29.82 in 5.0 mi South 4.6 mph - N/A   Overcast
4:55 AM 26.6 °F 21.2 °F 26.6 °F 100% 29.82 in 5.0 mi South 4.6 mph - N/A   Overcast
5:15 AM 26.6 °F 20.0 °F 26.6 °F 100% 29.82 in 5.0 mi South 5.8 mph - N/A   Overcast
5:35 AM 26.6 °F 19.1 °F 26.6 °F 100% 29.81 in 5.0 mi South 6.9 mph - N/A   Overcast
5:55 AM 26.6 °F 19.1 °F 26.6 °F 100% 29.81 in 5.0 mi South 6.9 mph - N/A   Overcast
6:15 AM 26.6 °F 19.1 °F 26.6 °F 100% 29.80 in 5.0 mi South 6.9 mph - N/A   Overcast
6:35 AM 26.6 °F 19.1 °F 26.6 °F 100% 29.79 in 5.0 mi South 6.9 mph - N/A   Overcast
6:55 AM 26.6 °F 20.0 °F 24.8 °F 93% 29.78 in 4.0 mi SSW 5.8 mph - N/A   Overcast
7:15 AM 28.4 °F 21.2 °F 26.6 °F 93% 29.78 in 4.0 mi SSW 6.9 mph - N/A   Overcast
7:35 AM 28.4 °F 19.1 °F 26.6 °F 93% 29.78 in 4.0 mi SW 10.4 mph - N/A   Overcast
7:55 AM 28.4 °F 20.4 °F 26.6 °F 93% 29.78 in 4.0 mi SW 8.1 mph - N/A   Overcast
8:15 AM 28.4 °F 19.7 °F 26.6 °F 93% 29.77 in 4.0 mi SSW 9.2 mph - N/A   Overcast
8:35 AM 28.4 °F 20.4 °F 26.6 °F 93% 29.76 in 3.0 mi SSW 8.1 mph - N/A   Overcast
8:55 AM 28.4 °F 19.7 °F 26.6 °F 93% 29.77 in 4.0 mi SSW 9.2 mph - N/A   Overcast
9:15 AM 28.4 °F 21.2 °F 26.6 °F 93% 29.76 in 3.0 mi SSW 6.9 mph - N/A   Overcast
9:35 AM 28.4 °F 20.4 °F 26.6 °F 93% 29.77 in 3.0 mi SSW 8.1 mph - N/A   Overcast
9:55 AM 28.4 °F 19.7 °F 26.6 °F 93% 29.76 in 3.0 mi SW 9.2 mph - N/A   Overcast
10:15 AM 28.4 °F 18.5 °F 26.6 °F 93% 29.76 in 5.0 mi WSW 11.5 mph 17.3 mph N/A   Overcast
10:35 AM 28.4 °F 18.0 °F 26.6 °F 93% 29.75 in 10.0 mi WSW 12.7 mph - N/A   Overcast
10:55 AM 28.4 °F 18.5 °F 24.8 °F 86% 29.75 in 10.0 mi WSW 11.5 mph - N/A   Overcast
11:15 AM 28.4 °F 16.6 °F 24.8 °F 86% 29.74 in 10.0 mi WSW 16.1 mph - N/A   Overcast
11:35 AM 26.6 °F 15.2 °F 24.8 °F 93% 29.74 in 10.0 mi WSW 13.8 mph - N/A   Overcast
11:55 AM 26.6 °F 15.7 °F 24.8 °F 93% 29.73 in 10.0 mi West 12.7 mph - N/A   Overcast
12:15 PM 26.6 °F 15.7 °F 24.8 °F 93% 29.72 in 10.0 mi West 12.7 mph - N/A   Overcast
12:35 PM 26.6 °F 15.7 °F 24.8 °F 93% 29.72 in 10.0 mi West 12.7 mph - N/A   Overcast
12:55 PM 26.6 °F 14.7 °F 24.8 °F 93% 29.71 in 10.0 mi West 15.0 mph - N/A   Overcast
1:15 PM 26.6 °F 15.2 °F 23.0 °F 86% 29.71 in 10.0 mi West 13.8 mph - N/A   Overcast
1:35 PM 24.8 °F 12.4 °F 23.0 °F 93% 29.71 in 5.0 mi West 15.0 mph - N/A   Overcast
1:55 PM 24.8 °F 14.0 °F 21.2 °F 86% 29.70 in 5.0 mi West 11.5 mph - N/A   Overcast
2:15 PM 24.8 °F 13.4 °F 23.0 °F 93% 29.70 in 5.0 mi WNW 12.7 mph - N/A   Overcast
2:35 PM 24.8 °F 13.4 °F 21.2 °F 86% 29.69 in 7.0 mi WNW 12.7 mph - N/A   Overcast
2:55 PM 24.8 °F 15.3 °F 21.2 °F 86% 29.69 in 5.0 mi West 9.2 mph - N/A   Overcast
3:15 PM 24.8 °F 12.9 °F 23.0 °F 93% 29.69 in 5.0 mi West 13.8 mph - N/A   Overcast
3:35 PM 24.8 °F 13.4 °F 24.8 °F 100% 29.69 in 4.0 mi WNW 12.7 mph - N/A   Overcast
3:55 PM 24.8 °F 14.0 °F 21.2 °F 86% 29.70 in 3.0 mi WNW 11.5 mph - N/A   Overcast
4:15 PM 24.8 °F 12.9 °F 21.2 °F 86% 29.70 in 7.0 mi WNW 13.8 mph - N/A   Overcast
4:35 PM 24.8 °F 13.4 °F 21.2 °F 86% 29.71 in 7.0 mi NW 12.7 mph - N/A   Overcast
4:55 PM 24.8 °F 12.9 °F 24.8 °F 100% 29.72 in 8.0 mi WNW 13.8 mph - N/A   Overcast
5:15 PM 24.8 °F 11.5 °F 21.2 °F 86% 29.73 in 7.0 mi WNW 17.3 mph - N/A   Overcast
5:35 PM 23.0 °F 10.6 °F 19.4 °F 86% 29.73 in 10.0 mi WNW 13.8 mph - N/A   Overcast
5:55 PM 23.0 °F 9.6 °F 19.4 °F 86% 29.73 in 8.0 mi WNW 16.1 mph 20.7 mph N/A   Overcast
6:15 PM 23.0 °F 10.6 °F 21.2 °F 93% 29.74 in 8.0 mi WNW 13.8 mph - N/A   Overcast
6:35 PM 24.8 °F 10.0 °F 21.2 °F 86% 29.73 in 8.0 mi WNW 21.9 mph - N/A   Overcast
6:55 PM 23.0 °F 8.7 °F 19.4 °F 86% 29.74 in 10.0 mi NW 18.4 mph 25.3 mph N/A   Overcast
7:15 PM 23.0 °F 9.6 °F 19.4 °F 86% 29.74 in 10.0 mi NW 16.1 mph - N/A   Overcast
7:35 PM 24.8 °F 12.4 °F 19.4 °F 80% 29.73 in 10.0 mi WNW 15.0 mph - N/A   Overcast
7:55 PM 24.8 °F 14.0 °F 19.4 °F 80% 29.74 in 10.0 mi WNW 11.5 mph - N/A   Overcast
8:15 PM 24.8 °F 13.4 °F 21.2 °F 86% 29.74 in 10.0 mi WNW 12.7 mph - N/A   Overcast
8:35 PM 24.8 °F 12.4 °F 21.2 °F 86% 29.74 in 10.0 mi WNW 15.0 mph - N/A   Overcast
8:55 PM 24.8 °F 11.9 °F 21.2 °F 86% 29.74 in 10.0 mi NW 16.1 mph - N/A   Overcast
9:15 PM 26.6 °F 14.7 °F 21.2 °F 80% 29.74 in 10.0 mi WNW 15.0 mph - N/A   Overcast
9:35 PM 26.6 °F 13.8 °F 21.2 °F 80% 29.74 in 10.0 mi WNW 17.3 mph - N/A   Overcast
9:55 PM 26.6 °F 13.8 °F 21.2 °F 80% 29.74 in 10.0 mi WNW 17.3 mph 21.9 mph N/A   Overcast
10:15 PM 26.6 °F 13.8 °F 21.2 °F 80% 29.74 in 10.0 mi WNW 17.3 mph - N/A   Overcast
10:35 PM 26.6 °F 12.7 °F 21.2 °F 80% 29.74 in 10.0 mi WNW 20.7 mph 26.5 mph N/A   Overcast
10:55 PM 28.4 °F 15.1 °F 21.2 °F 74% 29.74 in 10.0 mi WNW 20.7 mph 27.6 mph N/A   Overcast
11:15 PM 28.4 °F 15.8 °F 21.2 °F 74% 29.74 in 10.0 mi NW 18.4 mph 25.3 mph N/A   Overcast
11:35 PM 28.4 °F 15.1 °F 23.0 °F 80% 29.75 in 10.0 mi WNW 20.7 mph 25.3 mph N/A   Overcast
11:55 PM 28.4 °F 15.1 °F 21.2 °F 74% 29.75 in 10.0 mi WNW 20.7 mph - N/A   Overcast